Time;durP1;ratioP1;P1;durP2;ratioP2;P2;SDS_P1;SDS_P2;PMS_P1;PMS_P2;Temp;Humidity;BMP_temperature;BMP_pressure;BME280_temperature;BME280_humidity;BME280_pressure;Samples;Min_cycle;Max_cycle;Signal;HPM_P1;HPM_P2
2023/02/09 00:01:28;;;;;;;8.98;5.10;;;;;;;2.78;44.55;101406.34;4995054;28;20063;-79
2023/02/09 00:03:56;;;;;;;9.23;5.03;;;;;;;2.77;44.37;101407.22;5014597;28;20100;-79
2023/02/09 00:06:25;;;;;;;10.10;5.22;;;;;;;2.73;45.09;101401.16;5014111;28;20148;-79
2023/02/09 00:08:52;;;;;;;12.75;5.97;;;;;;;2.69;44.66;101400.28;5014597;28;20049;-78
2023/02/09 00:14:13;;;;;;;;;;;;;;;2.63;44.30;101383.78;5014908;28;20421;-79
2023/02/09 00:16:40;;;;;;;9.00;5.07;;;;;;;2.61;44.64;101391.56;5009120;28;19928;-79
2023/02/09 00:19:06;;;;;;;8.75;5.18;;;;;;;2.58;44.51;101396.78;5010564;28;20052;-79
2023/02/09 00:21:33;;;;;;;9.65;5.57;;;;;;;2.56;44.78;101390.69;5014283;28;20429;-79
2023/02/09 00:24:00;;;;;;;10.80;5.93;;;;;;;2.55;44.97;101388.97;5014148;28;20128;-79
2023/02/09 00:26:26;;;;;;;9.18;5.05;;;;;;;2.55;45.15;101382.03;4995170;28;20054;-78
2023/02/09 00:28:53;;;;;;;10.73;6.00;;;;;;;2.56;45.15;101383.78;5009373;28;20100;-78
2023/02/09 00:31:19;;;;;;;8.63;5.35;;;;;;;2.56;44.91;101375.09;5011651;28;20057;-78
2023/02/09 00:33:46;;;;;;;11.60;5.90;;;;;;;2.57;45.52;101376.84;5014176;28;20129;-79
2023/02/09 00:36:13;;;;;;;12.13;6.38;;;;;;;2.56;45.50;101370.78;5013830;28;20095;-78
2023/02/09 00:38:42;;;;;;;8.70;5.05;;;;;;;2.56;44.89;101377.72;5009223;28;20090;-79
2023/02/09 00:41:09;;;;;;;10.38;5.47;;;;;;;2.56;45.36;101372.50;4993064;28;20468;-80
2023/02/09 00:43:36;;;;;;;10.13;6.03;;;;;;;2.55;45.02;101362.97;5013473;28;20056;-79
2023/02/09 00:46:02;;;;;;;9.10;5.45;;;;;;;2.51;45.14;101359.50;4993048;28;20145;-79
2023/02/09 00:48:29;;;;;;;14.23;6.00;;;;;;;2.51;44.84;101361.25;5012637;28;20053;-79
2023/02/09 00:50:56;;;;;;;10.55;5.88;;;;;;;2.48;45.63;101368.16;5013616;28;20058;-80
2023/02/09 00:53:23;;;;;;;12.63;6.70;;;;;;;2.44;44.69;101376.78;5013470;28;20135;-78
2023/02/09 00:55:50;;;;;;;12.45;5.88;;;;;;;2.43;44.96;101377.66;5012451;28;20819;-79
2023/02/09 00:58:17;;;;;;;11.02;5.63;;;;;;;2.41;44.73;101370.72;5013275;28;20050;-80
2023/02/09 01:00:45;;;;;;;10.15;5.97;;;;;;;2.40;45.09;101369.88;5013584;28;20046;-78
2023/02/09 01:03:11;;;;;;;11.15;6.47;;;;;;;2.39;45.20;101362.06;5013713;28;20057;-79
2023/02/09 01:05:42;;;;;;;12.15;5.75;;;;;;;2.37;44.79;101362.06;5013441;28;20070;-80
2023/02/09 01:08:09;;;;;;;9.45;5.72;;;;;;;2.38;45.03;101356.00;5008204;28;20512;-78
2023/02/09 01:10:37;;;;;;;11.07;6.50;;;;;;;2.37;44.79;101356.88;4995850;28;20516;-79
2023/02/09 01:13:03;;;;;;;8.68;5.20;;;;;;;2.36;44.86;101365.53;5008590;28;20487;-78
2023/02/09 01:15:30;;;;;;;11.95;6.38;;;;;;;2.36;44.96;101370.72;5011207;28;20114;-79
2023/02/09 01:17:58;;;;;;;10.35;5.78;;;;;;;2.36;45.48;101375.94;5013139;28;20418;-80
2023/02/09 01:20:25;;;;;;;11.45;6.28;;;;;;;2.35;44.81;101381.97;5013369;28;20065;-77
2023/02/09 01:22:51;;;;;;;8.45;5.32;;;;;;;2.35;44.89;101381.97;5008614;28;20074;-79
2023/02/09 01:25:18;;;;;;;11.35;5.47;;;;;;;2.36;45.15;101382.84;5010258;28;20052;-80
2023/02/09 01:27:44;;;;;;;9.90;5.97;;;;;;;2.36;45.04;101373.34;5013253;28;20049;-78
2023/02/09 01:30:11;;;;;;;13.60;6.13;;;;;;;2.37;45.04;101380.25;4992032;28;20410;-78
2023/02/09 01:32:38;;;;;;;10.73;5.63;;;;;;;2.36;44.93;101373.34;4992126;28;20051;-79
2023/02/09 01:35:05;;;;;;;10.48;6.10;;;;;;;2.36;45.18;101381.13;5008275;28;20502;-78
2023/02/09 01:37:33;;;;;;;9.63;5.82;;;;;;;2.36;44.86;101380.25;5012656;28;20092;-80
2023/02/09 01:39:59;;;;;;;10.60;5.82;;;;;;;2.35;45.12;101374.16;5012519;28;20068;-79
2023/02/09 01:42:26;;;;;;;9.55;5.50;;;;;;;2.34;44.32;101382.84;5012835;28;20062;-79
2023/02/09 01:45:24;;;;;;;11.93;6.32;;;;;;;2.30;44.33;101375.88;5012334;28;20529;-79
2023/02/09 01:47:58;;;;;;;9.48;5.75;;;;;;;2.31;44.31;101372.44;5007979;28;20416;-79
2023/02/09 01:50:28;;;;;;;11.65;6.68;;;;;;;2.31;44.72;101377.63;5010753;28;20053;-77
2023/02/09 01:52:55;;;;;;;11.60;5.63;;;;;;;2.31;45.22;101372.44;5012590;28;20062;-79
2023/02/09 01:55:26;;;;;;;13.18;5.68;;;;;;;2.28;45.09;101375.88;5009048;28;20047;-79
2023/02/09 01:58:06;;;;;;;11.80;6.38;;;;;;;2.24;44.01;101381.09;5007545;28;20100;-79
2023/02/09 02:00:32;;;;;;;11.18;5.60;;;;;;;2.26;45.35;101371.53;5010555;28;20058;-79
2023/02/09 02:03:04;;;;;;;10.63;6.20;;;;;;;2.22;45.23;101379.31;5012230;28;20493;-78
2023/02/09 02:05:34;;;;;;;10.85;6.05;;;;;;;2.20;44.59;101370.66;5011854;28;20115;-78
2023/02/09 02:08:09;;;;;;;9.38;5.90;;;;;;;2.16;44.85;101365.44;5012104;28;20054;-78
2023/02/09 02:10:36;;;;;;;13.43;7.07;;;;;;;2.16;44.96;101353.31;5012297;28;20056;-78
2023/02/09 02:13:02;;;;;;;11.82;6.90;;;;;;;2.13;45.73;101349.84;5012079;28;20058;-78
2023/02/09 02:15:40;;;;;;;13.48;6.72;;;;;;;2.10;45.24;101348.13;5011834;28;20085;-79
2023/02/09 02:18:26;;;;;;;13.25;7.10;;;;;;;2.09;44.43;101341.16;5012268;28;20116;-79
2023/02/09 02:21:14;;;;;;;12.02;6.47;;;;;;;2.10;44.94;101342.94;5007534;28;20100;-78
2023/02/09 02:24:00;;;;;;;14.45;6.53;;;;;;;2.13;45.20;101348.13;5004250;28;20769;-78
2023/02/09 02:26:36;;;;;;;10.90;6.30;;;;;;;2.11;45.38;101330.78;5011725;28;20506;-79
2023/02/09 02:29:24;;;;;;;13.02;6.97;;;;;;;2.11;44.79;101325.59;5011971;28;20086;-79
2023/02/09 02:31:59;;;;;;;10.07;6.63;;;;;;;2.11;44.95;101315.19;5011898;28;20642;-80
2023/02/09 02:34:36;;;;;;;12.77;6.53;;;;;;;2.09;44.82;101312.59;5012017;28;20061;-79
2023/02/09 02:37:15;;;;;;;12.13;6.70;;;;;;;2.11;45.46;101307.41;5011309;28;20060;-78
2023/02/09 02:39:56;;;;;;;14.40;6.65;;;;;;;2.09;44.61;101304.81;5010566;28;20137;-78
2023/02/09 02:42:48;;;;;;;11.38;7.18;;;;;;;2.10;44.83;101306.56;5011588;28;20107;-79
2023/02/09 02:45:22;;;;;;;12.02;6.82;;;;;;;2.10;45.12;101293.56;5007421;28;20050;-79
2023/02/09 02:48:08;;;;;;;13.18;7.40;;;;;;;2.08;44.41;101290.09;5011384;28;20057;-78
2023/02/09 02:50:39;;;;;;;14.88;7.38;;;;;;;2.12;45.91;101299.63;5011589;28;20061;-78
2023/02/09 02:55:46;;;;;;;13.70;6.97;;;;;;;2.14;45.43;101297.91;4308397;26;20068;-78
2023/02/09 02:58:14;;;;;;;11.55;7.22;;;;;;;2.13;45.63;101309.16;5051563;28;20045;-78
2023/02/09 03:00:47;;;;;;;13.43;7.57;;;;;;;2.12;44.96;101302.22;5051422;28;20110;-78
2023/02/09 03:03:20;;;;;;;12.35;6.97;;;;;;;2.12;45.13;101297.03;5051536;28;20378;-78
2023/02/09 03:05:48;;;;;;;13.90;7.82;;;;;;;2.11;45.32;101292.69;5051745;28;20061;-78
2023/02/09 03:08:23;;;;;;;14.85;8.13;;;;;;;2.08;44.64;101297.88;5051115;28;20481;-78
2023/02/09 03:10:50;;;;;;;15.13;8.68;;;;;;;2.10;45.53;101296.16;5033942;28;20448;-78
2023/02/09 03:13:39;;;;;;;13.63;8.13;;;;;;;2.14;45.87;101291.84;5033831;28;20099;-78
2023/02/09 03:16:24;;;;;;;15.85;7.53;;;;;;;2.12;45.17;101301.34;5045138;28;20053;-78
2023/02/09 03:19:19;;;;;;;14.07;7.60;;;;;;;2.11;44.71;101303.09;5032540;28;20056;-78
2023/02/09 03:21:53;;;;;;;13.05;7.65;;;;;;;2.13;45.33;101303.09;5044573;28;20049;-78
2023/02/09 03:24:34;;;;;;;12.95;8.02;;;;;;;2.12;45.56;101297.03;5051150;28;20056;-78
2023/02/09 03:27:07;;;;;;;18.27;8.10;;;;;;;2.08;45.06;101300.47;5050940;28;20469;-78
2023/02/09 03:29:41;;;;;;;13.07;7.37;;;;;;;2.05;45.38;101298.75;5051442;28;20110;-78
2023/02/09 03:32:09;;;;;;;15.63;8.05;;;;;;;2.07;45.88;101298.75;5051091;28;20341;-78
2023/02/09 03:34:38;;;;;;;17.90;8.55;;;;;;;2.04;45.74;101289.22;5051190;28;20114;-78
2023/02/09 03:37:04;;;;;;;14.75;8.63;;;;;;;2.04;45.60;101283.16;5051007;28;20547;-78
2023/02/09 03:39:31;;;;;;;13.80;8.13;;;;;;;2.04;45.92;101290.94;5050930;28;20103;-78
2023/02/09 03:41:57;;;;;;;14.48;8.27;;;;;;;2.02;45.88;101284.88;5049362;28;20040;-78
2023/02/09 03:44:26;;;;;;;19.73;9.40;;;;;;;1.98;45.73;101283.13;5060790;28;20492;-78
2023/02/09 03:46:54;;;;;;;16.30;8.80;;;;;;;1.98;45.62;101277.94;5050833;28;20057;-78
2023/02/09 03:49:23;;;;;;;16.65;8.50;;;;;;;1.97;46.38;101281.41;5050852;28;20049;-78
2023/02/09 03:51:49;;;;;;;15.45;8.23;;;;;;;1.97;46.22;101269.28;5050575;28;20072;-78
2023/02/09 03:54:16;;;;;;;16.33;8.63;;;;;;;1.93;46.23;101278.78;5050401;28;20118;-78
2023/02/09 03:56:44;;;;;;;14.70;8.40;;;;;;;1.90;46.45;101273.59;5050613;28;20049;-78
2023/02/09 03:59:11;;;;;;;16.52;8.95;;;;;;;1.89;46.47;101266.66;5051104;28;20455;-78
2023/02/09 04:01:44;;;;;;;14.43;8.45;;;;;;;1.86;46.23;101258.00;5050636;28;20114;-78
2023/02/09 04:04:11;;;;;;;15.40;8.80;;;;;;;1.84;46.14;101252.78;5050794;28;20099;-79
2023/02/09 04:06:38;;;;;;;15.85;8.40;;;;;;;1.84;46.26;101259.72;5042313;28;20094;-78
2023/02/09 04:09:05;;;;;;;16.17;8.85;;;;;;;1.82;46.52;101259.69;5051017;28;20045;-78
2023/02/09 04:11:32;;;;;;;16.92;9.32;;;;;;;1.80;45.83;101258.84;5051038;28;20084;-78
2023/02/09 04:13:58;;;;;;;17.50;9.57;;;;;;;1.80;46.86;101258.84;5050967;28;20049;-78
2023/02/09 04:16:25;;;;;;;18.80;9.98;;;;;;;1.76;46.26;101244.97;5050450;28;20071;-78
2023/02/09 04:18:52;;;;;;;18.17;9.00;;;;;;;1.77;46.70;101248.44;5050956;28;20045;-79
2023/02/09 04:21:19;;;;;;;16.02;8.40;;;;;;;1.74;46.29;101240.63;5051023;28;20440;-78
2023/02/09 04:23:46;;;;;;;14.95;8.85;;;;;;;1.73;46.46;101241.50;5050652;28;20048;-78
2023/02/09 04:26:15;;;;;;;19.35;9.13;;;;;;;1.69;46.44;101233.69;5050322;28;20060;-78
2023/02/09 04:28:42;;;;;;;19.40;9.82;;;;;;;1.68;46.76;101233.66;5051404;28;20049;-78
2023/02/09 04:31:09;;;;;;;19.90;9.68;;;;;;;1.66;46.65;101245.78;5054095;28;20049;-78
2023/02/09 04:33:36;;;;;;;16.55;9.38;;;;;;;1.64;46.96;101245.78;5054050;28;20140;-78
2023/02/09 04:36:05;;;;;;;18.35;9.43;;;;;;;1.61;47.03;101244.91;5053614;28;20481;-78
2023/02/09 04:38:31;;;;;;;19.05;9.35;;;;;;;1.59;46.59;101239.72;5053683;28;20045;-79
2023/02/09 04:41:00;;;;;;;20.02;9.48;;;;;;;1.58;46.95;101242.28;5054069;28;20049;-79
2023/02/09 04:43:27;;;;;;;15.60;8.93;;;;;;;1.59;47.10;101251.81;5054174;28;20106;-79
2023/02/09 04:45:54;;;;;;;18.30;9.35;;;;;;;1.58;46.88;101248.38;5053762;28;20183;-78
2023/02/09 04:48:24;;;;;;;19.58;9.48;;;;;;;1.55;46.93;101249.22;5053770;28;20401;-79
2023/02/09 04:50:51;;;;;;;18.63;9.90;;;;;;;1.57;47.16;101251.78;5053954;28;20386;-79
2023/02/09 04:53:19;;;;;;;15.15;8.25;;;;;;;1.55;47.40;101253.53;5036786;28;20049;-79
2023/02/09 04:55:46;;;;;;;17.05;9.43;;;;;;;1.53;47.24;101257.88;5054222;28;20048;-79
2023/02/09 05:01:04;;;;;;;15.95;8.63;;;;;;;1.52;47.20;101253.50;5053985;28;20048;-78
2023/02/09 05:03:31;;;;;;;18.33;9.38;;;;;;;1.51;47.66;101251.78;5053872;28;20048;-78
2023/02/09 05:06:01;;;;;;;18.05;10.00;;;;;;;1.48;47.03;101249.16;5053905;28;20362;-79
2023/02/09 05:08:28;;;;;;;20.83;10.20;;;;;;;1.46;47.29;101251.75;5053531;28;20052;-79
2023/02/09 05:10:55;;;;;;;19.83;8.93;;;;;;;1.45;47.51;101238.78;5053553;28;20639;-79
2023/02/09 05:13:23;;;;;;;23.55;9.95;;;;;;;1.40;47.50;101223.19;5053384;28;20049;-78
2023/02/09 05:15:50;;;;;;;15.68;9.30;;;;;;;1.38;47.80;101215.38;5053649;28;20045;-79
2023/02/09 05:18:19;;;;;;;17.23;9.32;;;;;;;1.35;47.42;101201.56;5053432;28;20053;-79
2023/02/09 05:20:46;;;;;;;16.27;9.35;;;;;;;1.32;47.80;101198.94;5053381;28;20103;-78
2023/02/09 05:23:15;;;;;;;17.90;10.52;;;;;;;1.26;47.53;101205.81;5053662;28;20056;-79
2023/02/09 05:25:44;;;;;;;18.35;9.55;;;;;;;1.27;47.89;101206.72;5053355;28;20045;-79
2023/02/09 05:28:11;;;;;;;21.50;10.13;;;;;;;1.24;48.24;101207.53;5053559;28;20402;-78
2023/02/09 05:30:38;;;;;;;17.48;10.25;;;;;;;1.23;47.98;101211.00;5053335;28;20077;-78
2023/02/09 05:33:06;;;;;;;17.48;10.23;;;;;;;1.21;47.85;101202.34;5053242;28;20107;-79
2023/02/09 05:35:34;;;;;;;19.77;9.40;;;;;;;1.19;47.82;101213.56;5053069;28;20049;-78
2023/02/09 05:38:08;;;;;;;17.23;9.75;;;;;;;1.16;48.01;101215.28;5053081;28;20037;-78
2023/02/09 05:40:34;;;;;;;18.77;9.90;;;;;;;1.16;48.30;101212.69;5052338;28;20106;-78
2023/02/09 05:43:02;;;;;;;18.15;9.93;;;;;;;1.15;48.35;101210.97;5053063;28;20102;-78
2023/02/09 05:45:28;;;;;;;21.05;10.52;;;;;;;1.14;48.28;101201.44;5053137;28;20077;-78
2023/02/09 05:47:55;;;;;;;18.13;10.27;;;;;;;1.13;48.23;101204.88;5052889;28;20452;-78
2023/02/09 05:50:21;;;;;;;20.95;10.63;;;;;;;1.10;48.58;101191.91;5053217;28;20045;-78
2023/02/09 05:52:48;;;;;;;21.45;10.23;;;;;;;1.07;48.70;101204.84;5052831;28;20056;-78
2023/02/09 05:55:17;;;;;;;20.35;10.35;;;;;;;1.05;48.20;101211.78;5052727;28;20055;-78
2023/02/09 05:57:43;;;;;;;18.98;9.68;;;;;;;1.04;48.66;101208.31;5052929;28;20444;-79
2023/02/09 06:00:10;;;;;;;20.38;10.68;;;;;;;1.04;48.49;101212.59;5052987;28;20053;-78
2023/02/09 06:02:37;;;;;;;21.73;9.95;;;;;;;1.04;48.48;101215.19;5044522;28;20436;-78
2023/02/09 06:05:04;;;;;;;18.17;9.85;;;;;;;1.01;48.47;101222.97;5052510;28;20049;-78
2023/02/09 06:07:31;;;;;;;22.20;10.45;;;;;;;1.01;48.96;101233.34;5052002;28;20110;-79
2023/02/09 06:09:58;;;;;;;24.20;10.10;;;;;;;0.99;49.34;101233.34;5052448;28;20064;-78
2023/02/09 06:12:25;;;;;;;21.15;10.00;;;;;;;0.99;48.69;101230.75;5052484;28;20061;-78
2023/02/09 06:14:51;;;;;;;18.65;9.88;;;;;;;0.98;49.00;101241.09;5052281;28;20053;-78
2023/02/09 06:17:18;;;;;;;20.75;9.95;;;;;;;0.97;49.12;101257.53;5052024;28;20045;-78
2023/02/09 06:19:53;;;;;;;21.27;9.82;;;;;;;0.94;49.01;101254.91;5052217;28;20060;-78
2023/02/09 06:22:19;;;;;;;18.73;9.63;;;;;;;0.94;48.98;101254.91;5052545;28;20049;-79
2023/02/09 06:24:46;;;;;;;20.38;9.70;;;;;;;0.93;48.75;101263.56;5052272;28;20053;-78
2023/02/09 06:27:12;;;;;;;19.63;9.93;;;;;;;0.90;48.61;101269.59;5052199;28;20053;-79
2023/02/09 06:29:39;;;;;;;17.15;9.82;;;;;;;0.88;49.39;101269.56;5050748;28;20056;-78
2023/02/09 06:32:05;;;;;;;18.00;10.07;;;;;;;0.87;49.06;101272.13;5052065;28;20052;-78
2023/02/09 06:34:38;;;;;;;19.15;10.10;;;;;;;0.83;48.88;101278.16;5051827;28;20053;-78
2023/02/09 06:37:04;;;;;;;16.35;8.50;;;;;;;0.83;49.08;101273.84;5051876;28;20469;-78
2023/02/09 06:39:33;;;;;;;16.95;9.38;;;;;;;0.80;49.28;101273.81;5051759;28;20060;-78
2023/02/09 06:42:00;;;;;;;20.60;10.15;;;;;;;0.78;49.32;101265.16;5051741;28;20106;-78
2023/02/09 06:44:26;;;;;;;21.17;10.30;;;;;;;0.76;49.41;101265.16;5051849;28;20103;-78
2023/02/09 06:46:53;;;;;;;18.42;10.07;;;;;;;0.73;49.61;101264.25;5052011;28;20049;-78
2023/02/09 06:49:22;;;;;;;21.35;9.98;;;;;;;0.72;49.47;101271.19;5051681;28;20056;-78
2023/02/09 06:51:49;;;;;;;18.55;9.50;;;;;;;0.72;49.43;101270.28;5051483;28;20049;-78
2023/02/09 06:54:16;;;;;;;17.38;9.88;;;;;;;0.69;49.41;101276.31;5051254;28;20071;-78
2023/02/09 06:56:42;;;;;;;18.00;10.50;;;;;;;0.69;50.08;101280.63;5051199;28;20048;-79
2023/02/09 06:59:09;;;;;;;22.27;9.57;;;;;;;0.68;49.46;101276.31;5033564;28;20578;-79
2023/02/09 07:01:36;;;;;;;21.30;9.40;;;;;;;0.67;49.83;101287.53;5051165;28;20064;-79
2023/02/09 07:04:02;;;;;;;19.33;9.60;;;;;;;0.66;49.61;101278.03;5051729;28;20111;-79
2023/02/09 07:06:30;;;;;;;19.52;9.27;;;;;;;0.63;50.00;101268.47;5051106;28;20049;-79
2023/02/09 07:08:56;;;;;;;20.45;9.45;;;;;;;0.62;49.71;101270.22;5051098;28;20056;-79
2023/02/09 07:11:23;;;;;;;18.25;9.88;;;;;;;0.60;49.38;101266.72;5050921;28;20048;-79
2023/02/09 07:13:49;;;;;;;21.00;10.40;;;;;;;0.60;50.06;101271.06;5049951;28;20049;-79
2023/02/09 07:16:16;;;;;;;19.33;10.68;;;;;;;0.58;50.57;101278.81;5051397;28;20049;-79
2023/02/09 07:18:43;;;;;;;19.15;10.18;;;;;;;0.57;49.92;101276.22;5050979;28;20098;-80
2023/02/09 07:21:14;;;;;;;17.58;10.18;;;;;;;0.55;50.17;101273.59;5051226;28;20048;-78
2023/02/09 07:23:40;;;;;;;19.00;10.77;;;;;;;0.55;50.27;101289.16;5051310;28;20057;-78
2023/02/09 07:26:12;;;;;;;20.35;10.50;;;;;;;0.52;49.98;101284.81;5050958;28;20460;-78
2023/02/09 07:28:38;;;;;;;22.75;10.95;;;;;;;0.54;49.83;101284.81;5051150;28;20067;-78
2023/02/09 07:31:08;;;;;;;19.10;10.35;;;;;;;0.53;50.27;101280.50;5051050;28;20052;-78
2023/02/09 07:33:35;;;;;;;18.90;10.15;;;;;;;0.55;50.74;101275.34;5033337;28;20082;-78
2023/02/09 07:36:07;;;;;;;23.05;9.93;;;;;;;0.54;50.38;101286.53;5033410;28;20049;-78
2023/02/09 07:38:34;;;;;;;20.58;9.40;;;;;;;0.55;50.56;101276.19;5051103;28;20053;-78
2023/02/09 07:41:13;;;;;;;21.83;10.68;;;;;;;0.52;50.79;101284.81;5050842;28;20049;-78
2023/02/09 07:43:39;;;;;;;24.48;11.50;;;;;;;0.55;50.86;101278.78;5051180;28;20122;-78
2023/02/09 07:46:06;;;;;;;23.55;11.15;;;;;;;0.56;50.68;101277.91;5050790;28;20049;-78
2023/02/09 07:48:34;;;;;;;21.30;10.48;;;;;;;0.58;50.75;101296.06;5050509;28;20484;-78
2023/02/09 07:51:01;;;;;;;19.50;10.88;;;;;;;0.60;50.09;101291.78;5050411;28;20053;-78
2023/02/09 07:53:28;;;;;;;20.05;11.02;;;;;;;0.63;50.45;101296.97;5051018;28;20118;-79
2023/02/09 07:55:55;;;;;;;19.25;9.63;;;;;;;0.66;50.75;101303.94;5050455;28;20048;-79
2023/02/09 07:58:24;;;;;;;21.10;10.05;;;;;;;0.68;50.60;101304.81;5050450;28;20677;-79
2023/02/09 08:00:51;;;;;;;18.70;10.80;;;;;;;0.72;51.10;101302.28;5050945;28;20631;-79
2023/02/09 08:03:20;;;;;;;22.85;10.55;;;;;;;0.73;51.05;101303.13;5051005;28;20045;-79
2023/02/09 08:05:59;;;;;;;19.98;10.52;;;;;;;0.75;50.62;101309.22;5036615;28;20094;-79
2023/02/09 08:08:26;;;;;;;21.60;10.68;;;;;;;0.80;50.77;101299.75;5054693;28;20053;-78
2023/02/09 08:10:55;;;;;;;19.17;9.77;;;;;;;0.80;51.13;101294.56;5054562;28;20045;-79
2023/02/09 08:13:27;;;;;;;18.95;10.32;;;;;;;0.81;50.92;101298.88;5051250;28;20045;-78
2023/02/09 08:15:58;;;;;;;23.08;11.40;;;;;;;0.83;50.92;101299.78;5054402;28;20052;-79
2023/02/09 08:18:30;;;;;;;18.42;9.98;;;;;;;0.86;50.78;101309.31;5033623;28;20052;-79
2023/02/09 08:20:57;;;;;;;18.55;10.48;;;;;;;0.89;50.66;101314.50;5054662;28;20053;-79
2023/02/09 08:23:28;;;;;;;17.02;9.55;;;;;;;0.90;51.36;101317.09;5054501;28;20087;-79
2023/02/09 08:25:57;;;;;;;22.70;11.48;;;;;;;0.93;50.98;101320.59;5054613;28;20103;-79
2023/02/09 08:28:23;;;;;;;25.88;12.25;;;;;;;0.96;51.05;101315.41;5054019;28;20489;-79
2023/02/09 08:31:09;;;;;;;24.02;11.50;;;;;;;0.99;50.94;101320.63;5053985;28;20132;-78
2023/02/09 08:33:36;;;;;;;20.05;11.35;;;;;;;1.01;51.05;101306.81;5054146;28;20400;-78
2023/02/09 08:36:03;;;;;;;21.58;11.63;;;;;;;1.04;51.50;101314.63;5054003;28;20095;-79
2023/02/09 08:38:29;;;;;;;24.50;12.07;;;;;;;1.06;50.77;101312.06;5052987;28;20144;-79
2023/02/09 08:40:56;;;;;;;23.98;12.85;;;;;;;1.09;50.87;101303.41;5053120;28;20074;-78
2023/02/09 08:43:23;;;;;;;21.85;11.93;;;;;;;1.13;50.83;101321.59;5054064;28;20053;-79
2023/02/09 08:45:49;;;;;;;18.63;10.25;;;;;;;1.17;51.08;101319.91;5053754;28;20057;-79
2023/02/09 08:48:18;;;;;;;22.75;11.57;;;;;;;1.22;50.96;101322.53;5053501;28;20052;-78
2023/02/09 08:50:44;;;;;;;21.52;11.35;;;;;;;1.25;51.18;101315.66;5052743;28;20053;-79
2023/02/09 08:53:10;;;;;;;21.92;11.75;;;;;;;1.29;51.13;101308.75;5072359;22;20028;-80
2023/02/09 08:55:38;;;;;;;22.63;11.52;;;;;;;1.34;50.86;101308.78;5022093;28;20068;-81
2023/02/09 08:58:06;;;;;;;21.85;11.68;;;;;;;1.39;50.72;101312.28;5046890;28;20041;-80
2023/02/09 09:00:33;;;;;;;21.67;11.80;;;;;;;1.44;50.99;101315.75;5051775;28;20060;-80
2023/02/09 09:03:03;;;;;;;22.67;11.27;;;;;;;1.47;50.63;101304.53;5051973;28;20110;-80
2023/02/09 09:05:30;;;;;;;23.77;11.68;;;;;;;1.52;50.83;101308.00;5052823;28;20500;-81
2023/02/09 09:07:57;;;;;;;24.08;12.23;;;;;;;1.56;50.49;101302.88;5053203;28;20044;-80
2023/02/09 09:10:24;;;;;;;23.50;12.02;;;;;;;1.60;50.92;101302.88;5053090;28;20054;-81
2023/02/09 09:12:51;;;;;;;22.33;11.52;;;;;;;1.64;50.74;101312.44;5052775;28;20045;-81
2023/02/09 09:15:17;;;;;;;24.13;12.60;;;;;;;1.67;50.48;101297.72;5051631;28;20079;-80
2023/02/09 09:17:44;;;;;;;25.05;11.93;;;;;;;1.74;51.08;101301.22;5051990;28;20139;-81
2023/02/09 09:20:11;;;;;;;22.17;12.30;;;;;;;1.77;51.03;101297.75;5052013;28;20477;-81
2023/02/09 09:22:37;;;;;;;22.40;12.13;;;;;;;1.81;50.70;101270.94;5052272;28;20091;-80
2023/02/09 09:25:05;;;;;;;23.30;11.98;;;;;;;1.84;50.31;101255.41;5052307;28;20536;-81
2023/02/09 09:27:33;;;;;;;22.42;12.60;;;;;;;1.88;50.02;101280.50;5052582;28;20136;-80
2023/02/09 09:30:01;;;;;;;26.85;12.82;;;;;;;1.91;50.46;101251.09;5052402;28;20049;-80
2023/02/09 09:32:27;;;;;;;24.20;12.93;;;;;;;1.93;50.75;101258.03;5052634;28;20056;-80
2023/02/09 09:34:57;;;;;;;25.15;12.63;;;;;;;1.94;50.60;101259.75;5034628;28;20492;-81
2023/02/09 09:37:25;;;;;;;24.05;12.65;;;;;;;2.00;50.61;101266.69;5052569;28;20448;-80
2023/02/09 09:39:51;;;;;;;24.23;12.52;;;;;;;2.04;50.37;101272.75;5052170;28;20084;-81
2023/02/09 09:42:33;;;;;;;26.45;12.32;;;;;;;2.03;49.82;101266.72;5052617;28;20081;-80
2023/02/09 09:45:00;;;;;;;24.42;12.63;;;;;;;2.13;50.42;101269.34;5052672;28;20053;-81
2023/02/09 09:47:39;;;;;;;26.27;12.65;;;;;;;2.15;50.15;101275.38;5052407;28;20053;-82
2023/02/09 09:50:15;;;;;;;23.00;11.73;;;;;;;2.21;50.52;101273.66;5052186;28;20140;-80
2023/02/09 09:52:46;;;;;;;29.63;12.32;;;;;;;2.28;50.67;101291.88;5034531;28;20053;-80
2023/02/09 09:55:22;;;;;;;21.55;11.82;;;;;;;2.33;50.22;101297.97;5052251;28;20132;-80
2023/02/09 09:57:50;;;;;;;21.88;12.45;;;;;;;2.40;50.53;101289.31;5052004;28;20045;-80
2023/02/09 10:00:50;;;;;;;21.73;12.65;;;;;;;2.43;50.38;101289.31;5052111;28;20497;-81
2023/02/09 10:03:19;;;;;;;21.67;12.35;;;;;;;2.53;50.69;101276.31;4992070;28;20044;-82
2023/02/09 10:05:49;;;;;;;22.08;12.13;;;;;;;2.58;50.39;101274.59;5051931;28;20056;-81
2023/02/09 10:08:22;;;;;;;20.55;12.18;;;;;;;2.64;51.09;101284.13;5051936;28;20056;-81
2023/02/09 10:11:07;;;;;;;20.08;10.88;;;;;;;2.67;49.42;101290.22;5052200;28;20060;-82
2023/02/09 10:13:46;;;;;;;22.33;12.30;;;;;;;2.74;50.23;101299.72;5052056;28;20045;-82
2023/02/09 10:16:24;;;;;;;22.15;11.98;;;;;;;2.82;49.87;101285.88;5051782;28;20280;-82
2023/02/09 10:18:56;;;;;;;20.42;12.38;;;;;;;2.87;49.99;101289.34;5052060;28;20056;-82
2023/02/09 10:21:28;;;;;;;31.03;14.03;;;;;;;2.94;50.14;101298.00;5051579;28;20052;-81
2023/02/09 10:24:01;;;;;;;22.33;12.73;;;;;;;2.99;50.30;101289.34;5052252;28;20056;-81
2023/02/09 10:26:30;;;;;;;21.95;12.18;;;;;;;3.09;50.72;101298.00;5051001;28;20765;-81
2023/02/09 10:29:23;;;;;;;23.77;13.38;;;;;;;3.14;49.86;101300.56;5051391;28;20083;-81
2023/02/09 10:32:12;;;;;;;24.00;12.35;;;;;;;3.23;50.21;101305.81;5042588;28;20053;-81
2023/02/09 10:34:41;;;;;;;21.55;11.88;;;;;;;3.34;50.41;101297.09;5033782;28;20057;-81
2023/02/09 10:37:41;;;;;;;24.48;13.45;;;;;;;3.43;49.69;101306.63;5051218;28;20347;-81
2023/02/09 10:40:11;;;;;;;19.17;11.80;;;;;;;3.55;50.05;101293.56;5001132;28;20048;-80
2023/02/09 10:42:42;;;;;;;25.00;12.77;;;;;;;3.65;49.68;101297.00;5051332;28;20052;-81
2023/02/09 10:45:20;;;;;;;22.67;12.85;;;;;;;3.72;49.62;101301.34;5050965;28;20057;-81
2023/02/09 10:48:10;;;;;;;22.88;13.00;;;;;;;3.81;48.44;101312.59;5051199;28;20106;-81
2023/02/09 10:50:55;;;;;;;24.17;13.63;;;;;;;3.89;47.73;101290.84;5040413;28;20055;-81
2023/02/09 10:53:25;;;;;;;23.88;13.70;;;;;;;3.98;48.98;101287.34;5033473;28;20049;-81
2023/02/09 10:56:13;;;;;;;23.92;13.82;;;;;;;4.00;47.16;101282.97;5050910;28;20045;-81
2023/02/09 10:58:40;;;;;;;23.50;13.50;;;;;;;4.09;48.91;101284.69;5050806;28;20160;-81
2023/02/09 11:01:24;;;;;;;23.48;12.93;;;;;;;4.11;47.90;101289.88;5050961;28;20053;-81
2023/02/09 11:03:59;;;;;;;21.00;12.77;;;;;;;4.21;48.64;101295.91;5051143;28;20461;-81
2023/02/09 11:06:27;;;;;;;23.33;13.48;;;;;;;4.28;48.88;101303.69;5050936;28;20127;-81
2023/02/09 11:09:11;;;;;;;19.55;12.15;;;;;;;4.35;47.34;101301.03;5050705;28;20048;-81
2023/02/09 11:11:39;;;;;;;21.98;12.23;;;;;;;4.49;48.90;101304.41;5051000;28;20091;-81
2023/02/09 11:14:16;;;;;;;22.35;12.70;;;;;;;4.57;47.57;101301.78;5050679;28;20140;-81
2023/02/09 11:16:59;;;;;;;22.35;12.70;;;;;;;4.68;46.79;101291.25;5050198;28;20045;-81
2023/02/09 11:19:54;;;;;;;22.90;12.35;;;;;;;4.81;46.52;101292.91;5050670;28;20053;-81
2023/02/09 11:22:32;;;;;;;23.80;12.77;;;;;;;4.98;47.69;101278.84;5050861;28;20060;-82
2023/02/09 11:25:05;;;;;;;21.08;12.57;;;;;;;5.13;48.51;101282.19;5050646;28;20169;-81
2023/02/09 11:27:45;;;;;;;26.40;13.15;;;;;;;5.25;47.53;101284.69;5050623;28;20053;-81
2023/02/09 11:31:00;;;;;;;23.40;13.02;;;;;;;5.35;44.54;101272.41;5050518;28;20083;-81
2023/02/09 11:33:42;;;;;;;22.98;11.90;;;;;;;5.52;46.92;101273.94;5050653;28;20748;-81
2023/02/09 11:36:27;;;;;;;22.48;13.10;;;;;;;5.59;45.72;101260.81;5050286;28;20080;-81
2023/02/09 11:38:59;;;;;;;22.65;13.02;;;;;;;5.68;47.27;101251.13;5049445;28;20131;-81
2023/02/09 11:44:29;;;;;;;19.85;12.65;;;;;;;5.84;45.38;101251.78;5050626;28;20057;-81
2023/02/09 11:47:05;;;;;;;19.08;11.38;;;;;;;5.96;46.32;101256.00;5049996;28;20049;-81
2023/02/09 11:49:43;;;;;;;18.88;11.88;;;;;;;6.12;46.79;101249.69;5050530;28;20061;-81